sensor_id;sensor_type;location;lat;lon;timestamp;pressure;altitude;pressure_sealevel;temperature;humidity
46724;BME280;32463;48.298;11.620;2023-04-24T00:00:33;95428.28;;;9.57;100.00
46724;BME280;32463;48.298;11.620;2023-04-24T00:03:03;95426.34;;;9.59;100.00
46724;BME280;32463;48.298;11.620;2023-04-24T00:05:31;95422.81;;;9.52;100.00
46724;BME280;32463;48.298;11.620;2023-04-24T00:07:58;95428.00;;;9.52;100.00
46724;BME280;32463;48.298;11.620;2023-04-24T00:10:25;95421.38;;;9.49;100.00
46724;BME280;32463;48.298;11.620;2023-04-24T00:12:51;95413.03;;;9.47;100.00
46724;BME280;32463;48.298;11.620;2023-04-24T00:15:18;95415.97;;;9.44;100.00
46724;BME280;32463;48.298;11.620;2023-04-24T00:17:44;95418.38;;;9.45;100.00
46724;BME280;32463;48.298;11.620;2023-04-24T00:20:11;95417.56;;;9.45;100.00
46724;BME280;32463;48.298;11.620;2023-04-24T00:22:40;95418.72;;;9.42;100.00
46724;BME280;32463;48.298;11.620;2023-04-24T00:25:07;95417.75;;;9.43;100.00
46724;BME280;32463;48.298;11.620;2023-04-24T00:27:33;95419.53;;;9.43;100.00
46724;BME280;32463;48.298;11.620;2023-04-24T00:30:02;95426.47;;;9.42;100.00
46724;BME280;32463;48.298;11.620;2023-04-24T00:32:28;95408.09;;;9.37;100.00
46724;BME280;32463;48.298;11.620;2023-04-24T00:34:55;95416.81;;;9.36;100.00
46724;BME280;32463;48.298;11.620;2023-04-24T00:37:21;95411.81;;;9.35;100.00
46724;BME280;32463;48.298;11.620;2023-04-24T00:39:47;95416.19;;;9.34;100.00
46724;BME280;32463;48.298;11.620;2023-04-24T00:42:14;95417.34;;;9.32;100.00
46724;BME280;32463;48.298;11.620;2023-04-24T00:44:41;95415.91;;;9.29;100.00
46724;BME280;32463;48.298;11.620;2023-04-24T00:47:07;95419.47;;;9.28;100.00
46724;BME280;32463;48.298;11.620;2023-04-24T00:49:33;95418.66;;;9.28;100.00
46724;BME280;32463;48.298;11.620;2023-04-24T00:52:00;95419.47;;;9.28;100.00
46724;BME280;32463;48.298;11.620;2023-04-24T00:54:27;95422.03;;;9.28;100.00
46724;BME280;32463;48.298;11.620;2023-04-24T00:56:53;95419.47;;;9.28;100.00
46724;BME280;32463;48.298;11.620;2023-04-24T00:59:20;95417.50;;;9.30;100.00
46724;BME280;32463;48.298;11.620;2023-04-24T01:01:46;95419.47;;;9.28;100.00
46724;BME280;32463;48.298;11.620;2023-04-24T01:04:14;95412.22;;;9.24;100.00
46724;BME280;32463;48.298;11.620;2023-04-24T01:06:41;95420.13;;;9.22;100.00
46724;BME280;32463;48.298;11.620;2023-04-24T01:09:10;95416.91;;;9.20;100.00
46724;BME280;32463;48.298;11.620;2023-04-24T01:11:38;95409.72;;;9.16;100.00
46724;BME280;32463;48.298;11.620;2023-04-24T01:14:04;95407.28;;;9.14;100.00
46724;BME280;32463;48.298;11.620;2023-04-24T01:16:31;95408.78;;;9.08;100.00
46724;BME280;32463;48.298;11.620;2023-04-24T01:18:57;95409.59;;;9.09;100.00
46724;BME280;32463;48.298;11.620;2023-04-24T01:21:26;95408.44;;;9.11;100.00
46724;BME280;32463;48.298;11.620;2023-04-24T01:23:54;95406.03;;;9.10;100.00
46724;BME280;32463;48.298;11.620;2023-04-24T01:26:21;95403.78;;;9.07;100.00
46724;BME280;32463;48.298;11.620;2023-04-24T01:28:50;95404.13;;;9.04;100.00
46724;BME280;32463;48.298;11.620;2023-04-24T01:31:17;95403.47;;;9.02;100.00
46724;BME280;32463;48.298;11.620;2023-04-24T01:33:43;95409.28;;;9.04;100.00
46724;BME280;32463;48.298;11.620;2023-04-24T01:36:11;95398.94;;;9.04;100.00
46724;BME280;32463;48.298;11.620;2023-04-24T01:38:37;95389.59;;;9.03;100.00
46724;BME280;32463;48.298;11.620;2023-04-24T01:41:04;95397.69;;;9.00;100.00
46724;BME280;32463;48.298;11.620;2023-04-24T01:43:30;95388.31;;;8.99;100.00
46724;BME280;32463;48.298;11.620;2023-04-24T01:45:58;95379.94;;;8.97;100.00
46724;BME280;32463;48.298;11.620;2023-04-24T01:48:24;95383.00;;;8.92;100.00
46724;BME280;32463;48.298;11.620;2023-04-24T01:50:51;95393.34;;;8.92;100.00
46724;BME280;32463;48.298;11.620;2023-04-24T01:53:17;95389.34;;;8.90;100.00
46724;BME280;32463;48.298;11.620;2023-04-24T01:55:44;95390.31;;;8.89;100.00
46724;BME280;32463;48.298;11.620;2023-04-24T01:58:10;95386.13;;;8.88;100.00
46724;BME280;32463;48.298;11.620;2023-04-24T02:00:37;95394.06;;;8.86;100.00
46724;BME280;32463;48.298;11.620;2023-04-24T02:03:03;95390.84;;;8.84;100.00
46724;BME280;32463;48.298;11.620;2023-04-24T02:05:29;95390.38;;;8.81;100.00
46724;BME280;32463;48.298;11.620;2023-04-24T02:07:56;95383.59;;;8.80;100.00
46724;BME280;32463;48.298;11.620;2023-04-24T02:10:22;95385.53;;;8.77;100.00
46724;BME280;32463;48.298;11.620;2023-04-24T02:12:50;95376.34;;;8.75;100.00
46724;BME280;32463;48.298;11.620;2023-04-24T02:15:17;95382.03;;;8.70;100.00
46724;BME280;32463;48.298;11.620;2023-04-24T02:17:43;95381.72;;;8.65;100.00
46724;BME280;32463;48.298;11.620;2023-04-24T02:20:10;95375.59;;;8.66;100.00
46724;BME280;32463;48.298;11.620;2023-04-24T02:22:37;95382.88;;;8.63;100.00
46724;BME280;32463;48.298;11.620;2023-04-24T02:25:04;95377.53;;;8.64;100.00
46724;BME280;32463;48.298;11.620;2023-04-24T02:27:30;95389.19;;;8.60;100.00
46724;BME280;32463;48.298;11.620;2023-04-24T02:29:57;95390.16;;;8.59;100.00
46724;BME280;32463;48.298;11.620;2023-04-24T02:32:24;95385.44;;;8.63;100.00
46724;BME280;32463;48.298;11.620;2023-04-24T02:34:51;95385.91;;;8.66;100.00
46724;BME280;32463;48.298;11.620;2023-04-24T02:37:17;95381.72;;;8.65;100.00
46724;BME280;32463;48.298;11.620;2023-04-24T02:39:44;95387.69;;;8.66;100.00
46724;BME280;32463;48.298;11.620;2023-04-24T02:42:14;95371.41;;;8.65;100.00
46724;BME280;32463;48.298;11.620;2023-04-24T02:44:40;95371.41;;;8.65;100.00
46724;BME280;32463;48.298;11.620;2023-04-24T02:47:07;95378.97;;;8.67;100.00
46724;BME280;32463;48.298;11.620;2023-04-24T02:49:34;95373.81;;;8.67;100.00
46724;BME280;32463;48.298;11.620;2023-04-24T02:52:01;95374.94;;;8.64;100.00
46724;BME280;32463;48.298;11.620;2023-04-24T02:54:27;95372.38;;;8.64;100.00
46724;BME280;32463;48.298;11.620;2023-04-24T02:56:54;95373.81;;;8.67;100.00
46724;BME280;32463;48.298;11.620;2023-04-24T02:59:21;95376.56;;;8.65;100.00
46724;BME280;32463;48.298;11.620;2023-04-24T03:01:48;95374.94;;;8.64;100.00
46724;BME280;32463;48.298;11.620;2023-04-24T03:04:14;95384.00;;;8.60;100.00
46724;BME280;32463;48.298;11.620;2023-04-24T03:06:41;95385.63;;;8.61;100.00
46724;BME280;32463;48.298;11.620;2023-04-24T03:09:11;95375.63;;;8.58;100.00
46724;BME280;32463;48.298;11.620;2023-04-24T03:11:38;95376.44;;;8.59;100.00
46724;BME280;32463;48.298;11.620;2023-04-24T03:14:05;95370.47;;;8.58;100.00
46724;BME280;32463;48.298;11.620;2023-04-24T03:16:32;95370.63;;;8.57;100.00
46724;BME280;32463;48.298;11.620;2023-04-24T03:18:59;95369.66;;;8.58;100.00
46724;BME280;32463;48.298;11.620;2023-04-24T03:21:25;95379.81;;;8.59;100.00
46724;BME280;32463;48.298;11.620;2023-04-24T03:23:52;95379.53;;;8.54;100.00
46724;BME280;32463;48.298;11.620;2023-04-24T03:26:19;95372.78;;;8.53;100.00
46724;BME280;32463;48.298;11.620;2023-04-24T03:28:45;95372.31;;;8.50;100.00
46724;BME280;32463;48.298;11.620;2023-04-24T03:31:12;95376.78;;;8.56;100.00
46724;BME280;32463;48.298;11.620;2023-04-24T03:33:38;95388.09;;;8.55;100.00
46724;BME280;32463;48.298;11.620;2023-04-24T03:36:05;95380.53;;;8.53;100.00
46724;BME280;32463;48.298;11.620;2023-04-24T03:38:31;95389.25;;;8.52;100.00
46724;BME280;32463;48.298;11.620;2023-04-24T03:40:58;95387.78;;;8.50;100.00
46724;BME280;32463;48.298;11.620;2023-04-24T03:43:24;95394.41;;;8.52;100.00
46724;BME280;32463;48.298;11.620;2023-04-24T03:45:52;95388.59;;;8.50;100.00
46724;BME280;32463;48.298;11.620;2023-04-24T03:48:19;95394.75;;;8.49;100.00
46724;BME280;32463;48.298;11.620;2023-04-24T03:50:45;95398.94;;;8.50;100.00
46724;BME280;32463;48.298;11.620;2023-04-24T03:53:11;95401.03;;;8.47;100.00
46724;BME280;32463;48.298;11.620;2023-04-24T03:55:38;95395.72;;;8.48;100.00
46724;BME280;32463;48.298;11.620;2023-04-24T03:58:04;95393.47;;;8.45;100.00
46724;BME280;32463;48.298;11.620;2023-04-24T04:00:31;95389.28;;;8.44;100.00
46724;BME280;32463;48.298;11.620;2023-04-24T04:02:58;95382.81;;;8.40;100.00
46724;BME280;32463;48.298;11.620;2023-04-24T04:05:25;95386.38;;;8.39;100.00
46724;BME280;32463;48.298;11.620;2023-04-24T04:07:51;95390.56;;;8.40;100.00
46724;BME280;32463;48.298;11.620;2023-04-24T04:10:18;95385.41;;;8.40;100.00
46724;BME280;32463;48.298;11.620;2023-04-24T04:12:44;95373.63;;;8.37;100.00
46724;BME280;32463;48.298;11.620;2023-04-24T04:15:11;95379.78;;;8.36;100.00
46724;BME280;32463;48.298;11.620;2023-04-24T04:17:38;95378.00;;;8.37;100.00
46724;BME280;32463;48.298;11.620;2023-04-24T04:20:05;95376.72;;;8.33;100.00
46724;BME280;32463;48.298;11.620;2023-04-24T04:22:34;95380.25;;;8.32;100.00
46724;BME280;32463;48.298;11.620;2023-04-24T04:25:01;95382.69;;;8.33;100.00
46724;BME280;32463;48.298;11.620;2023-04-24T04:27:28;95379.13;;;8.34;100.00
46724;BME280;32463;48.298;11.620;2023-04-24T04:30:01;95388.66;;;8.34;100.00
46724;BME280;32463;48.298;11.620;2023-04-24T04:32:33;95385.09;;;8.35;100.00
46724;BME280;32463;48.298;11.620;2023-04-24T04:35:03;95391.25;;;8.34;100.00
46724;BME280;32463;48.298;11.620;2023-04-24T04:37:30;95393.03;;;8.33;100.00
46724;BME280;32463;48.298;11.620;2023-04-24T04:39:57;95386.72;;;8.36;100.00
46724;BME280;32463;48.298;11.620;2023-04-24T04:42:24;95397.03;;;8.36;100.00
46724;BME280;32463;48.298;11.620;2023-04-24T04:44:52;95395.44;;;8.35;100.00
46724;BME280;32463;48.298;11.620;2023-04-24T04:47:21;95399.47;;;8.37;100.00
46724;BME280;32463;48.298;11.620;2023-04-24T04:49:47;95404.16;;;8.34;100.00
46724;BME280;32463;48.298;11.620;2023-04-24T04:52:14;95397.22;;;8.34;100.00
46724;BME280;32463;48.298;11.620;2023-04-24T04:54:42;95400.91;;;8.32;100.00
46724;BME280;32463;48.298;11.620;2023-04-24T04:57:08;95402.53;;;8.33;100.00
46724;BME280;32463;48.298;11.620;2023-04-24T04:59:35;95409.31;;;8.34;100.00
46724;BME280;32463;48.298;11.620;2023-04-24T05:02:02;95410.13;;;8.34;100.00
46724;BME280;32463;48.298;11.620;2023-04-24T05:04:29;95416.56;;;8.38;100.00
46724;BME280;32463;48.298;11.620;2023-04-24T05:06:55;95412.53;;;8.36;100.00
46724;BME280;32463;48.298;11.620;2023-04-24T05:09:22;95415.75;;;8.38;100.00
46724;BME280;32463;48.298;11.620;2023-04-24T05:11:48;95416.56;;;8.38;100.00
46724;BME280;32463;48.298;11.620;2023-04-24T05:14:15;95410.59;;;8.38;100.00
46724;BME280;32463;48.298;11.620;2023-04-24T05:16:43;95415.25;;;8.42;100.00
46724;BME280;32463;48.298;11.620;2023-04-24T05:19:09;95420.25;;;8.44;100.00
46724;BME280;32463;48.298;11.620;2023-04-24T05:21:37;95419.94;;;8.47;100.00
46724;BME280;32463;48.298;11.620;2023-04-24T05:24:04;95411.53;;;8.45;100.00
46724;BME280;32463;48.298;11.620;2023-04-24T05:26:31;95415.72;;;8.54;100.00
46724;BME280;32463;48.298;11.620;2023-04-24T05:28:57;95421.44;;;8.64;100.00
46724;BME280;32463;48.298;11.620;2023-04-24T05:31:24;95426.44;;;8.66;100.00
46724;BME280;32463;48.298;11.620;2023-04-24T05:33:50;95424.19;;;8.71;100.00
46724;BME280;32463;48.298;11.620;2023-04-24T05:36:17;95423.66;;;8.75;100.00
46724;BME280;32463;48.298;11.620;2023-04-24T05:38:43;95422.53;;;8.78;100.00
46724;BME280;32463;48.298;11.620;2023-04-24T05:41:10;95412.31;;;8.85;100.00
46724;BME280;32463;48.298;11.620;2023-04-24T05:43:36;95424.28;;;8.86;100.00
46724;BME280;32463;48.298;11.620;2023-04-24T05:46:03;95421.84;;;8.84;100.00
46724;BME280;32463;48.298;11.620;2023-04-24T05:48:29;95422.66;;;8.85;100.00
46724;BME280;32463;48.298;11.620;2023-04-24T05:50:56;95423.28;;;8.87;100.00
46724;BME280;32463;48.298;11.620;2023-04-24T05:53:22;95418.41;;;8.92;100.00
46724;BME280;32463;48.298;11.620;2023-04-24T05:55:48;95429.50;;;9.00;100.00
46724;BME280;32463;48.298;11.620;2023-04-24T05:58:15;95425.44;;;9.06;100.00
46724;BME280;32463;48.298;11.620;2023-04-24T06:00:42;95427.38;;;9.04;100.00
46724;BME280;32463;48.298;11.620;2023-04-24T06:03:09;95420.25;;;9.06;100.00
46724;BME280;32463;48.298;11.620;2023-04-24T06:05:35;95429.00;;;9.05;100.00
46724;BME280;32463;48.298;11.620;2023-04-24T06:08:02;95428.19;;;9.04;100.00
46724;BME280;32463;48.298;11.620;2023-04-24T06:10:29;95428.66;;;9.08;100.00
46724;BME280;32463;48.298;11.620;2023-04-24T06:12:55;95430.72;;;9.13;100.00
46724;BME280;32463;48.298;11.620;2023-04-24T06:15:27;95436.38;;;9.16;100.00
46724;BME280;32463;48.298;11.620;2023-04-24T06:17:53;95434.38;;;9.18;100.00
46724;BME280;32463;48.298;11.620;2023-04-24T06:20:20;95437.91;;;9.25;100.00
46724;BME280;32463;48.298;11.620;2023-04-24T06:22:46;95435.56;;;9.38;100.00
46724;BME280;32463;48.298;11.620;2023-04-24T06:25:13;95434.16;;;9.51;100.00
46724;BME280;32463;48.298;11.620;2023-04-24T06:27:40;95439.56;;;9.64;100.00
46724;BME280;32463;48.298;11.620;2023-04-24T06:30:06;95437.94;;;9.63;100.00
46724;BME280;32463;48.298;11.620;2023-04-24T06:32:33;95434.94;;;9.74;100.00
46724;BME280;32463;48.298;11.620;2023-04-24T06:34:59;95437.38;;;9.75;100.00
46724;BME280;32463;48.298;11.620;2023-04-24T06:37:26;95443.53;;;9.89;100.00
46724;BME280;32463;48.298;11.620;2023-04-24T06:39:52;95434.44;;;9.93;100.00
46724;BME280;32463;48.298;11.620;2023-04-24T06:42:19;95438.91;;;9.99;100.00
46724;BME280;32463;48.298;11.620;2023-04-24T06:44:47;95437.66;;;9.95;100.00
46724;BME280;32463;48.298;11.620;2023-04-24T06:47:13;95437.03;;;9.93;100.00
46724;BME280;32463;48.298;11.620;2023-04-24T06:49:40;95438.34;;;9.89;100.00
46724;BME280;32463;48.298;11.620;2023-04-24T06:52:07;95455.69;;;9.89;100.00
46724;BME280;32463;48.298;11.620;2023-04-24T06:54:34;95449.06;;;9.86;100.00
46724;BME280;32463;48.298;11.620;2023-04-24T06:57:00;95451.59;;;9.94;100.00
46724;BME280;32463;48.298;11.620;2023-04-24T06:59:27;95456.34;;;10.05;100.00
46724;BME280;32463;48.298;11.620;2023-04-24T07:01:54;95454.81;;;10.11;100.00
46724;BME280;32463;48.298;11.620;2023-04-24T07:04:21;95457.06;;;10.14;100.00
46724;BME280;32463;48.298;11.620;2023-04-24T07:06:48;95453.44;;;10.38;100.00
46724;BME280;32463;48.298;11.620;2023-04-24T07:09:16;95454.31;;;10.45;100.00
46724;BME280;32463;48.298;11.620;2023-04-24T07:11:44;95462.28;;;10.43;100.00
46724;BME280;32463;48.298;11.620;2023-04-24T07:14:13;95456.56;;;10.48;100.00
46724;BME280;32463;48.298;11.620;2023-04-24T07:16:40;95453.81;;;10.35;100.00
46724;BME280;32463;48.298;11.620;2023-04-24T07:19:06;95459.41;;;10.53;100.00
46724;BME280;32463;48.298;11.620;2023-04-24T07:21:33;95452.34;;;10.76;100.00
46724;BME280;32463;48.298;11.620;2023-04-24T07:23:59;95449.91;;;10.75;100.00
46724;BME280;32463;48.298;11.620;2023-04-24T07:26:28;95452.88;;;10.87;100.00
46724;BME280;32463;48.298;11.620;2023-04-24T07:28:54;95446.97;;;10.93;100.00
46724;BME280;32463;48.298;11.620;2023-04-24T07:31:21;95464.41;;;10.84;100.00
46724;BME280;32463;48.298;11.620;2023-04-24T07:33:48;95457.59;;;10.98;100.00
46724;BME280;32463;48.298;11.620;2023-04-24T07:36:15;95468.34;;;10.80;100.00
46724;BME280;32463;48.298;11.620;2023-04-24T07:38:42;95471.47;;;10.90;100.00
46724;BME280;32463;48.298;11.620;2023-04-24T07:41:09;95465.56;;;10.82;100.00
46724;BME280;32463;48.298;11.620;2023-04-24T07:43:35;95475.78;;;10.68;100.00
46724;BME280;32463;48.298;11.620;2023-04-24T07:46:02;95473.59;;;10.87;100.00
46724;BME280;32463;48.298;11.620;2023-04-24T07:48:29;95471.41;;;11.05;100.00
46724;BME280;32463;48.298;11.620;2023-04-24T07:50:55;95470.69;;;11.11;100.00
46724;BME280;32463;48.298;11.620;2023-04-24T07:53:22;95478.22;;;11.06;100.00
46724;BME280;32463;48.298;11.620;2023-04-24T07:55:48;95483.41;;;11.06;100.00
46724;BME280;32463;48.298;11.620;2023-04-24T07:58:15;95485.31;;;10.83;100.00
46724;BME280;32463;48.298;11.620;2023-04-24T08:00:41;95483.97;;;10.87;100.00
46724;BME280;32463;48.298;11.620;2023-04-24T08:03:08;95481.47;;;10.78;100.00
46724;BME280;32463;48.298;11.620;2023-04-24T08:05:34;95491.69;;;10.65;100.00
46724;BME280;32463;48.298;11.620;2023-04-24T08:08:00;95506.00;;;10.61;100.00
46724;BME280;32463;48.298;11.620;2023-04-24T08:10:27;95492.75;;;10.56;100.00
46724;BME280;32463;48.298;11.620;2023-04-24T08:12:53;95496.75;;;10.44;100.00
46724;BME280;32463;48.298;11.620;2023-04-24T08:15:21;95490.44;;;10.61;100.00
46724;BME280;32463;48.298;11.620;2023-04-24T08:17:47;95503.03;;;10.64;100.00
46724;BME280;32463;48.298;11.620;2023-04-24T08:20:15;95500.44;;;10.64;100.00
46724;BME280;32463;48.298;11.620;2023-04-24T08:22:42;95503.31;;;10.69;100.00
46724;BME280;32463;48.298;11.620;2023-04-24T08:25:10;95507.50;;;10.56;100.00
46724;BME280;32463;48.298;11.620;2023-04-24T08:27:37;95512.34;;;10.59;100.00
46724;BME280;32463;48.298;11.620;2023-04-24T08:30:04;95506.00;;;10.61;100.00
46724;BME280;32463;48.298;11.620;2023-04-24T08:32:31;95501.50;;;10.55;100.00
46724;BME280;32463;48.298;11.620;2023-04-24T08:34:58;95517.63;;;10.65;100.00
46724;BME280;32463;48.298;11.620;2023-04-24T08:37:26;95513.41;;;10.50;100.00
46724;BME280;32463;48.298;11.620;2023-04-24T08:39:53;95513.13;;;10.59;100.00
46724;BME280;32463;48.298;11.620;2023-04-24T08:42:20;95523.31;;;10.46;100.00
46724;BME280;32463;48.298;11.620;2023-04-24T08:44:49;95524.84;;;10.55;100.00
46724;BME280;32463;48.298;11.620;2023-04-24T08:47:15;95529.66;;;10.43;100.00
46724;BME280;32463;48.298;11.620;2023-04-24T08:49:42;95538.25;;;10.73;100.00
46724;BME280;32463;48.298;11.620;2023-04-24T08:52:10;95536.28;;;10.75;100.00
46724;BME280;32463;48.298;11.620;2023-04-24T08:54:39;95540.22;;;10.86;100.00
46724;BME280;32463;48.298;11.620;2023-04-24T08:57:07;95527.41;;;11.14;100.00
46724;BME280;32463;48.298;11.620;2023-04-24T08:59:34;95536.47;;;11.39;100.00
46724;BME280;32463;48.298;11.620;2023-04-24T09:02:02;95538.41;;;11.88;100.00
46724;BME280;32463;48.298;11.620;2023-04-24T09:04:29;95536.13;;;12.28;100.00
46724;BME280;32463;48.298;11.620;2023-04-24T09:06:58;95549.47;;;12.25;100.00
46724;BME280;32463;48.298;11.620;2023-04-24T09:09:25;95542.47;;;12.19;100.00
46724;BME280;32463;48.298;11.620;2023-04-24T09:11:52;95546.28;;;12.78;100.00
46724;BME280;32463;48.298;11.620;2023-04-24T09:14:21;95538.59;;;12.36;100.00
46724;BME280;32463;48.298;11.620;2023-04-24T09:16:49;95540.97;;;12.09;100.00
46724;BME280;32463;48.298;11.620;2023-04-24T09:19:16;95544.53;;;12.30;100.00
46724;BME280;32463;48.298;11.620;2023-04-24T09:21:45;95538.41;;;11.88;100.00
46724;BME280;32463;48.298;11.620;2023-04-24T09:24:17;95537.03;;;11.92;100.00
46724;BME280;32463;48.298;11.620;2023-04-24T09:26:45;95538.16;;;11.83;100.00
46724;BME280;32463;48.298;11.620;2023-04-24T09:29:16;95539.91;;;11.61;100.00
46724;BME280;32463;48.298;11.620;2023-04-24T09:31:44;95541.31;;;11.78;100.00
46724;BME280;32463;48.298;11.620;2023-04-24T09:34:12;95540.13;;;11.81;100.00
46724;BME280;32463;48.298;11.620;2023-04-24T09:36:40;95547.50;;;11.63;100.00
46724;BME280;32463;48.298;11.620;2023-04-24T09:39:13;95550.31;;;11.46;100.00
46724;BME280;32463;48.298;11.620;2023-04-24T09:42:00;95553.44;;;11.57;100.00
46724;BME280;32463;48.298;11.620;2023-04-24T09:44:28;95557.56;;;11.51;100.00
46724;BME280;32463;48.298;11.620;2023-04-24T09:46:56;95550.72;;;11.65;100.00
46724;BME280;32463;48.298;11.620;2023-04-24T09:49:30;95548.66;;;11.96;100.00
46724;BME280;32463;48.298;11.620;2023-04-24T09:52:06;95542.53;;;12.53;100.00
46724;BME280;32463;48.298;11.620;2023-04-24T09:54:32;95546.63;;;12.41;100.00
46724;BME280;32463;48.298;11.620;2023-04-24T09:57:02;95541.44;;;12.41;100.00
46724;BME280;32463;48.298;11.620;2023-04-24T09:59:29;95541.84;;;12.44;100.00
46724;BME280;32463;48.298;11.620;2023-04-24T10:01:55;95536.53;;;12.94;91.48
46724;BME280;32463;48.298;11.620;2023-04-24T10:04:26;95554.28;;;13.18;93.94
46724;BME280;32463;48.298;11.620;2023-04-24T10:06:55;95546.81;;;13.02;92.92
46724;BME280;32463;48.298;11.620;2023-04-24T10:09:26;95548.94;;;12.92;92.31
46724;BME280;32463;48.298;11.620;2023-04-24T10:11:54;95538.47;;;12.78;94.09
46724;BME280;32463;48.298;11.620;2023-04-24T10:14:24;95530.50;;;12.87;94.34
46724;BME280;32463;48.298;11.620;2023-04-24T10:16:54;95538.88;;;13.71;82.52
46724;BME280;32463;48.298;11.620;2023-04-24T10:19:25;95537.38;;;13.35;88.05
46724;BME280;32463;48.298;11.620;2023-04-24T10:21:52;95543.69;;;13.74;90.06
46724;BME280;32463;48.298;11.620;2023-04-24T10:24:19;95541.28;;;13.79;90.24
46724;BME280;32463;48.298;11.620;2023-04-24T10:26:47;95545.53;;;14.20;85.95
46724;BME280;32463;48.298;11.620;2023-04-24T10:29:15;95546.31;;;14.13;82.24
46724;BME280;32463;48.298;11.620;2023-04-24T10:31:41;95538.38;;;13.47;83.07
46724;BME280;32463;48.298;11.620;2023-04-24T10:34:10;95548.25;;;13.11;85.93
46724;BME280;32463;48.298;11.620;2023-04-24T10:36:40;95536.53;;;13.28;89.58
46724;BME280;32463;48.298;11.620;2023-04-24T10:39:10;95537.72;;;14.33;78.39
46724;BME280;32463;48.298;11.620;2023-04-24T10:41:38;95526.09;;;14.22;80.00
46724;BME280;32463;48.298;11.620;2023-04-24T10:46:32;95520.47;;;14.25;81.68
46724;BME280;32463;48.298;11.620;2023-04-24T10:48:59;95525.69;;;14.45;80.33
46724;BME280;32463;48.298;11.620;2023-04-24T10:51:49;95510.38;;;14.88;75.37
46724;BME280;32463;48.298;11.620;2023-04-24T10:54:41;95518.47;;;14.47;75.80
46724;BME280;32463;48.298;11.620;2023-04-24T10:59:45;95534.09;;;14.07;80.72
46724;BME280;32463;48.298;11.620;2023-04-24T11:02:14;95559.56;;;13.31;92.54
46724;BME280;32463;48.298;11.620;2023-04-24T11:04:41;95566.34;;;12.07;100.00
46724;BME280;32463;48.298;11.620;2023-04-24T11:07:11;95575.28;;;11.47;100.00
46724;BME280;32463;48.298;11.620;2023-04-24T11:09:38;95566.16;;;11.52;100.00
46724;BME280;32463;48.298;11.620;2023-04-24T11:12:08;95565.28;;;11.44;100.00
46724;BME280;32463;48.298;11.620;2023-04-24T11:17:37;95571.00;;;11.91;100.00
46724;BME280;32463;48.298;11.620;2023-04-24T11:20:15;95580.25;;;11.64;100.00
46724;BME280;32463;48.298;11.620;2023-04-24T11:22:42;95588.22;;;11.26;100.00
46724;BME280;32463;48.298;11.620;2023-04-24T11:25:09;95587.13;;;11.35;100.00
46724;BME280;32463;48.298;11.620;2023-04-24T11:27:40;95599.94;;;11.73;100.00
46724;BME280;32463;48.298;11.620;2023-04-24T11:30:08;95589.66;;;11.79;100.00
46724;BME280;32463;48.298;11.620;2023-04-24T11:32:40;95591.38;;;11.94;100.00
46724;BME280;32463;48.298;11.620;2023-04-24T11:35:18;95589.97;;;11.91;100.00
46724;BME280;32463;48.298;11.620;2023-04-24T11:37:51;95588.63;;;11.59;100.00
46724;BME280;32463;48.298;11.620;2023-04-24T11:40:19;95597.31;;;11.52;100.00
46724;BME280;32463;48.298;11.620;2023-04-24T11:42:49;95602.69;;;11.35;100.00
46724;BME280;32463;48.298;11.620;2023-04-24T11:45:18;95595.63;;;11.44;100.00
46724;BME280;32463;48.298;11.620;2023-04-24T11:47:45;95584.28;;;11.66;100.00
46724;BME280;32463;48.298;11.620;2023-04-24T11:50:14;95577.25;;;11.45;100.00
46724;BME280;32463;48.298;11.620;2023-04-24T11:52:43;95575.44;;;11.61;100.00
46724;BME280;32463;48.298;11.620;2023-04-24T11:57:44;95576.44;;;12.73;97.93
46724;BME280;32463;48.298;11.620;2023-04-24T12:00:21;95572.19;;;14.08;83.48
46724;BME280;32463;48.298;11.620;2023-04-24T12:02:49;95572.63;;;14.85;77.19
46724;BME280;32463;48.298;11.620;2023-04-24T12:05:26;95571.34;;;15.13;73.88
46724;BME280;32463;48.298;11.620;2023-04-24T12:07:53;95563.69;;;15.25;69.27
46724;BME280;32463;48.298;11.620;2023-04-24T12:10:21;95571.56;;;16.33;63.32
46724;BME280;32463;48.298;11.620;2023-04-24T12:12:49;95546.09;;;15.90;64.74
46724;BME280;32463;48.298;11.620;2023-04-24T12:15:17;95545.19;;;16.09;60.76
46724;BME280;32463;48.298;11.620;2023-04-24T12:17:44;95541.53;;;16.60;59.92
46724;BME280;32463;48.298;11.620;2023-04-24T12:20:12;95544.06;;;15.92;60.25
46724;BME280;32463;48.298;11.620;2023-04-24T12:22:55;95535.91;;;16.13;57.97
46724;BME280;32463;48.298;11.620;2023-04-24T12:25:27;95541.50;;;17.10;54.52
46724;BME280;32463;48.298;11.620;2023-04-24T12:27:54;95542.91;;;16.44;55.22
46724;BME280;32463;48.298;11.620;2023-04-24T12:30:26;95545.97;;;16.60;53.43
46724;BME280;32463;48.298;11.620;2023-04-24T12:32:53;95533.31;;;16.81;51.06
46724;BME280;32463;48.298;11.620;2023-04-24T12:35:22;95529.81;;;16.20;53.65
46724;BME280;32463;48.298;11.620;2023-04-24T12:37:49;95536.44;;;16.47;51.47
46724;BME280;32463;48.298;11.620;2023-04-24T12:40:19;95531.50;;;16.57;51.10
46724;BME280;32463;48.298;11.620;2023-04-24T12:45:15;95519.88;;;16.03;49.96
46724;BME280;32463;48.298;11.620;2023-04-24T12:47:43;95531.91;;;15.79;51.51
46724;BME280;32463;48.298;11.620;2023-04-24T12:50:11;95527.53;;;15.22;52.15
46724;BME280;32463;48.298;11.620;2023-04-24T12:52:39;95536.94;;;14.32;56.82
46724;BME280;32463;48.298;11.620;2023-04-24T12:55:06;95563.50;;;13.68;57.26
46724;BME280;32463;48.298;11.620;2023-04-24T12:57:36;95576.06;;;13.10;61.50
46724;BME280;32463;48.298;11.620;2023-04-24T13:00:05;95565.69;;;13.17;58.64
46724;BME280;32463;48.298;11.620;2023-04-24T13:02:33;95553.75;;;14.03;58.62